Printer image icon. Send To Printer
           
                RAOB DATA MANUAL QUALITY CONTROL (QC) REPORT
                                  MEXICAN
                       From 20150101 through 20150131

 ___DATE___ HOUR REASN DETAILS...

76225/CUU
   20150108  12Z 10158 10158...Flight equipment failure
   20150110  12Z 10158 10158...Flight equipment failure
   20150111  12Z 10158 10158...Flight equipment failure
   20150112  12Z 10158 10158...Flight equipment failure.
   20150113  12Z 10158 10158
   20150114  12Z 10158 10158
   20150115  12Z 10158 10158; Flight equip problem.
   20150116  12Z 10158 10158...Flight equipment problem
   20150117  12Z 10158 10158; Flight equip problems..
   20150118  12Z 10158 10158; flight equip problem..
   20150119  12Z 10158 10158.
   20150120  12Z 10158 10158.
   20150121  12Z 10158 10158.
   20150122  12Z 10158 10158
   20150123  12Z 10158 10158
   20150124  12Z 10158 10158
   20150126  12Z 10158 10158
   20150128  12Z 10158 10158
   20150129  12Z 10158 10158.
   20150130  12Z 10158 10158.

20 records found

76256/GYM
   20150107  12Z 10158 10158; Flight equip problem.
   20150108  12Z 10158 10158...Flight equipment failure
   20150111  12Z 10158 10158...Flight equipment failure
   20150112  12Z 10158 10158...Flight equipment failure.
   20150115  12Z 10158 10158; Flight equip problem.
   20150120  12Z 10158 10158.
   20150121  12Z 10158 10158.
   20150122  12Z 10158 10158
   20150123  12Z 10158 10158
   20150124  12Z 10158 10158
   20150125  12Z 10158 10158
   20150126  12Z 10158 10158
   20150128  12Z 10158 10158
   20150129  12Z 10158 10158.
   20150130  12Z 10158 10158.

15 records found

76405/LAP
   20150103  00Z DELET Purged temps, hgts all levels...high/warm
   20150104  00Z DELET Purged all hgts/temps...portions high/warm
   20150118  00Z DELET Purged all hgts/temps...portions high/warm
   20150119  00Z DELET Purged all hgts/temps...portions high/warm
   20150120  00Z DELET Purged all hgts and temps...portions high/warm

5 records found

76458/MZT
   20150113  12Z 10142 10142
   20150120  00Z 10158 10158
   20150121  00Z 10158 10158
   20150122  00Z 10158 10158
   20150123  00Z 10158 Flight equipment failure...10158
   20150124  00Z 10158 Flight equipment failure...10158
   20150125  00Z 10158 10158; Flight equip problems..
   20150126  00Z 10158 10158; Flight equip problem..
   20150127  00Z 10158 10158...Flight equipment failure
   20150128  00Z 10158 10158...Flight equipment failure
   20150129  00Z 10158 10158...Flight equipment failure
   20150129  12Z 10158 10158.
   20150130  00Z 10158 10158
   20150130  12Z 10158 10158.
   20150131  00Z 10158 10158
   20150131  12Z 10158 10158.

16 records found

76595/CUN
   20150106  12Z 10144 10144; Power failure.
   20150123  12Z 10144 10144

2 records found

76612/GDL
   20150128  12Z 10157 10157
   20150129  12Z 10157 10157.

2 records found

76654/MZL
   20150101  00Z DELET Purge hts/temps/humidity 1000mb up high and too cold
                       then warm..
   20150104  12Z SHORT Short to 784mb.
   20150105  00Z 10142 10142
   20150110  00Z DELET Purge hts/temps/humidity 925mb up high..warm then cold.
   20150117  12Z  MISG Missing Part TTAA..
   20150118  00Z DELET Purged hgts/temps 700 mb and up...portions high/warm
   20150120  00Z DELET Purged all hgts and temps...portions high/warm
   20150122  12Z DELET Purged all hgt/temps...portions low cold
   20150123  12Z DELET Purged all hgts/temps for GFS...portions low/cold
   20150128  00Z DELET Purged hgts/temps all levels...high/warm
   20150129  00Z DELET Purged all hgts/temps...portions high/warm

11 records found

76679/MEX
   20150103  00Z DELET Purged temps/rh 773 to 485mb...super-adiabatic lapse
                       rate
   20150105  12Z DELET Purge hts 500mb up high.
   20150111  12Z DELET Purged temps/hgts all levels...warm/high
   20150113  00Z DELET Purged hgts/temps all levels...high/warm
   20150116  12Z DELET Purged hgts 500mb and up...too high
   20150117  00Z DELET Purged all temps...too warm
   20150120  00Z DELET Purged all hgts and temps...portions high/warm
   20150122  00Z DELET Purged all hgts/temps...portions high/warm
   20150123  00Z DELET Purged all temps...too warm
   20150127  00Z DELET Purged all hgts/temps...too high/warm

10 records found

76692/HYY
   20150101  00Z 10158 10158; Flight equip problems..
   20150102  00Z 10158 10158...Flight equipment failure
   20150103  00Z 10158 10158...Flight equipment failure
   20150104  00Z 10158 10158
   20150105  00Z 10158 10158
   20150106  00Z 10158 10158
   20150108  00Z 10158 10158
   20150109  00Z 10158 10158; Flight equip problems.
   20150110  00Z 10158 10158; Flight equip problem..
   20150111  00Z 10158 10158.
   20150112  00Z 10158 10158.
   20150113  00Z 10158 10158...Flight equipment failure.
   20150115  00Z 10158 10158
   20150116  00Z 10158 10158
   20150117  00Z 10158 10158
   20150117  12Z 10144 10144; Power Failure
   20150118  00Z 10158 10158...Flight equipment failure
   20150119  00Z 10144 10144...Power failure
   20150120  00Z 10158 10158
   20150121  00Z 10158 10158
   20150122  00Z 10158 10158
   20150130  00Z DELET Purged all hgts/temps...portions high/warm

22 records found

76805/ACA
   20150110  12Z 10158 10158...Flight equipment failure
   20150111  12Z 10158 10158...Flight equipment failure
   20150113  12Z 10158 10158
   20150129  12Z 10158 10158.

4 records found

76903/TAP
   20150119  12Z SHORT Short to 416mb.

1 record found



SELECTED STATIONS WITH NO SDM QC:
  76394/MTY  76526/ZAC  76644/MID  76743/VHA




This and related reports are available on the Web at . . .
http://www.nco.ncep.noaa.gov/sib/qap/raobqc/